Time;durP1;ratioP1;P1;durP2;ratioP2;P2;SDS_P1;SDS_P2;PMS_P1;PMS_P2;Temp;Humidity;BMP_temperature;BMP_pressure;BME280_temperature;BME280_humidity;BME280_pressure;Samples;Min_cycle;Max_cycle;Signal;HPM_P1;HPM_P2
2023/05/22 00:00:28;;;;;;;8.65;4.78;;;;;;;15.51;80.31;94557.44;4992872;28;20479;-83
2023/05/22 00:02:53;;;;;;;7.60;4.85;;;;;;;15.82;79.68;94588.63;4991618;28;20416;-83
2023/05/22 00:05:19;;;;;;;6.85;3.92;;;;;;;15.66;79.09;94566.41;4993173;28;20205;-84
2023/05/22 00:07:59;;;;;;;10.40;5.03;;;;;;;15.63;79.55;94568.75;5068772;27;20415;-82
2023/05/22 00:10:25;;;;;;;8.70;4.53;;;;;;;15.70;79.27;94572.00;5070345;28;20179;-82
2023/05/22 00:12:50;;;;;;;9.32;4.53;;;;;;;15.83;78.99;94583.03;5069748;28;20584;-83
2023/05/22 00:15:16;;;;;;;7.88;4.93;;;;;;;15.86;79.21;94581.75;5068141;28;20824;-82
2023/05/22 00:17:41;;;;;;;7.78;4.72;;;;;;;15.76;79.22;94571.00;5069661;28;20657;-81
2023/05/22 00:20:09;;;;;;;10.93;5.10;;;;;;;15.77;79.07;94572.63;5069095;28;20429;-82
2023/05/22 00:22:35;;;;;;;11.10;4.60;;;;;;;15.95;78.96;94596.16;5067434;28;20406;-83
2023/05/22 00:25:02;;;;;;;7.18;5.05;;;;;;;15.69;79.29;94555.28;5101200;28;20421;-82
2023/05/22 00:27:27;;;;;;;6.93;4.40;;;;;;;15.81;78.56;94563.13;5069792;28;20182;-82
2023/05/22 00:29:53;;;;;;;6.47;4.38;;;;;;;15.79;78.17;94555.41;5069508;28;20649;-83
2023/05/22 00:32:18;;;;;;;8.07;4.65;;;;;;;15.87;78.22;94570.06;5068010;28;20934;-83
2023/05/22 00:34:44;;;;;;;8.48;4.65;;;;;;;15.81;78.18;94563.13;5067789;28;20246;-82
2023/05/22 00:37:09;;;;;;;5.70;4.35;;;;;;;15.99;78.66;94597.28;5068223;28;20318;-83
2023/05/22 00:39:35;;;;;;;6.22;3.78;;;;;;;15.97;78.67;94593.28;5066829;28;20163;-82
2023/05/22 00:42:00;;;;;;;7.40;4.20;;;;;;;16.00;78.34;94604.16;5067262;28;20158;-82
2023/05/22 00:44:26;;;;;;;8.40;4.50;;;;;;;15.84;78.59;94589.13;5066705;28;20437;-82
2023/05/22 00:46:51;;;;;;;5.53;3.70;;;;;;;15.83;79.21;94601.63;5065867;28;20186;-83
2023/05/22 00:49:16;;;;;;;7.67;5.10;;;;;;;15.68;78.45;94559.00;5065860;28;20955;-82
2023/05/22 00:51:42;;;;;;;6.40;4.70;;;;;;;15.73;78.50;94576.84;5067122;28;20437;-82
2023/05/22 00:54:09;;;;;;;7.20;4.95;;;;;;;15.59;78.67;94554.38;5068206;28;20901;-82
2023/05/22 00:56:34;;;;;;;7.95;4.90;;;;;;;15.84;78.83;94599.75;5067921;28;20903;-83
2023/05/22 00:59:00;;;;;;;7.57;4.70;;;;;;;15.71;79.19;94589.53;5067247;28;20418;-83
2023/05/22 01:01:32;;;;;;;8.05;4.60;;;;;;;15.62;78.97;94561.84;5068704;28;20155;-83
2023/05/22 01:04:00;;;;;;;5.82;4.55;;;;;;;15.84;78.75;94591.78;5067731;28;20459;-84
2023/05/22 01:06:26;;;;;;;6.07;4.57;;;;;;;15.70;78.52;94566.72;5068030;28;20838;-85
2023/05/22 01:08:52;;;;;;;9.88;4.80;;;;;;;15.79;79.13;94586.44;5068417;28;20170;-84
2023/05/22 01:11:27;;;;;;;4.88;4.00;;;;;;;15.79;79.26;94591.75;5068409;28;20228;-85
2023/05/22 01:14:17;;;;;;;6.80;4.13;;;;;;;15.81;79.04;94592.31;5082410;28;20201;-84
2023/05/22 01:17:39;;;;;;;8.25;4.95;;;;;;;15.74;79.40;94595.13;5072299;28;20408;-84
2023/05/22 01:20:23;;;;;;;5.13;4.43;;;;;;;15.73;79.15;94598.06;5065658;28;20186;-84
2023/05/22 01:23:13;;;;;;;7.85;5.18;;;;;;;15.62;79.99;94591.03;5065694;28;20414;-84
2023/05/22 01:25:51;;;;;;;8.07;5.53;;;;;;;15.59;79.82;94594.16;5074715;28;20538;-82
2023/05/22 01:28:47;;;;;;;11.20;5.20;;;;;;;15.44;80.60;94586.81;5074720;28;20189;-82
2023/05/22 01:31:18;;;;;;;7.47;5.75;;;;;;;14.92;82.60;94575.81;5073548;28;20900;-82
2023/05/22 01:33:57;;;;;;;7.90;5.47;;;;;;;14.59;84.77;94581.97;5074439;28;20420;-82
2023/05/22 01:36:27;;;;;;;8.63;5.68;;;;;;;14.55;85.31;94586.94;5073641;28;20409;-82
2023/05/22 01:38:53;;;;;;;6.82;5.63;;;;;;;14.59;85.02;94582.75;5074977;28;20208;-82
2023/05/22 01:41:20;;;;;;;7.40;5.00;;;;;;;14.35;85.36;94560.13;5073748;28;20680;-82
2023/05/22 01:43:45;;;;;;;8.25;5.07;;;;;;;14.39;85.67;94571.03;5074841;28;20622;-82
2023/05/22 01:46:11;;;;;;;8.38;4.80;;;;;;;14.38;85.68;94550.84;5074820;28;20220;-82
2023/05/22 01:48:36;;;;;;;10.02;4.85;;;;;;;14.36;85.68;94551.09;5074949;28;20189;-82
2023/05/22 01:51:07;;;;;;;11.07;5.53;;;;;;;14.53;85.60;94575.75;5074770;28;20151;-82
2023/05/22 01:53:58;;;;;;;12.48;6.20;;;;;;;14.48;85.68;94580.19;5075241;28;20190;-82
2023/05/22 01:56:35;;;;;;;8.10;5.18;;;;;;;14.36;85.75;94559.84;5073471;28;20159;-82
2023/05/22 01:59:24;;;;;;;9.10;5.10;;;;;;;14.39;86.08;94576.34;5076272;28;20162;-82
2023/05/22 02:01:51;;;;;;;10.02;5.78;;;;;;;14.20;86.56;94558.00;5076861;28;20776;-82
2023/05/22 02:04:20;;;;;;;10.10;6.20;;;;;;;13.99;87.23;94545.50;5076947;28;20492;-82
2023/05/22 02:06:46;;;;;;;6.13;5.22;;;;;;;14.17;87.68;94584.16;5075979;28;20752;-82
2023/05/22 02:09:15;;;;;;;7.22;5.90;;;;;;;13.91;87.39;94544.03;5078958;28;20183;-83
2023/05/22 02:11:41;;;;;;;6.68;5.00;;;;;;;14.00;87.87;94570.13;5076754;28;20584;-82
2023/05/22 02:14:10;;;;;;;7.80;5.20;;;;;;;13.94;87.98;94567.38;5074392;28;20198;-83
2023/05/22 02:16:36;;;;;;;11.13;7.47;;;;;;;13.98;88.28;94581.75;5073177;28;20614;-82
2023/05/22 02:19:05;;;;;;;9.93;5.67;;;;;;;13.92;87.93;94582.66;5073905;28;20406;-82
2023/05/22 02:21:34;;;;;;;13.98;7.05;;;;;;;13.74;89.34;94582.09;5072843;28;20416;-83
2023/05/22 02:24:01;;;;;;;8.10;5.68;;;;;;;13.51;89.43;94559.97;5073236;28;20560;-83
2023/05/22 02:26:26;;;;;;;9.00;5.70;;;;;;;13.52;89.68;94560.78;5074162;28;20189;-82
2023/05/22 02:28:52;;;;;;;9.75;6.68;;;;;;;13.38;89.94;94564.75;5073118;28;20417;-82
2023/05/22 02:31:17;;;;;;;13.77;6.33;;;;;;;13.52;89.62;94580.09;5071718;28;20158;-82
2023/05/22 02:33:43;;;;;;;11.00;5.87;;;;;;;13.53;89.29;94584.34;5074428;28;20226;-83
2023/05/22 02:36:09;;;;;;;10.15;5.25;;;;;;;13.49;88.90;94575.25;5073328;28;20155;-82
2023/05/22 02:38:35;;;;;;;13.68;5.97;;;;;;;13.46;89.02;94577.59;5073698;28;20174;-82
2023/05/22 02:41:01;;;;;;;8.27;4.83;;;;;;;13.42;89.29;94566.66;5074062;28;20159;-82
2023/05/22 02:43:26;;;;;;;7.97;5.57;;;;;;;13.41;89.23;94580.13;5073892;28;20192;-83
2023/05/22 02:45:52;;;;;;;9.17;5.77;;;;;;;13.30;89.49;94563.28;5073226;28;20174;-83
2023/05/22 02:48:18;;;;;;;11.07;5.43;;;;;;;13.18;89.31;94550.09;5072102;28;20269;-82
2023/05/22 02:50:43;;;;;;;11.10;6.47;;;;;;;13.26;89.14;94561.31;5073260;28;20170;-83
2023/05/22 02:53:09;;;;;;;9.50;5.70;;;;;;;13.32;89.33;94579.69;5073670;28;20634;-82
2023/05/22 02:55:34;;;;;;;8.57;6.10;;;;;;;13.05;89.56;94544.25;5074070;28;20174;-82
2023/05/22 02:58:03;;;;;;;13.40;6.00;;;;;;;13.29;89.95;94582.81;5075747;28;20230;-82
2023/05/22 03:00:28;;;;;;;12.17;6.30;;;;;;;13.11;89.95;94562.59;5073130;28;20174;-81
2023/05/22 03:02:53;;;;;;;9.60;5.83;;;;;;;12.85;89.57;94526.13;5073393;28;20155;-81
2023/05/22 03:05:19;;;;;;;13.97;7.00;;;;;;;12.93;90.92;94573.31;5063363;28;20170;-81
2023/05/22 03:07:44;;;;;;;10.17;7.00;;;;;;;12.95;91.12;94581.00;5062701;28;20758;-81
2023/05/22 03:10:10;;;;;;;11.10;6.17;;;;;;;12.91;91.56;94578.03;5068591;28;20174;-81
2023/05/22 03:12:35;;;;;;;11.47;6.13;;;;;;;12.72;91.86;94543.00;5073081;28;20205;-81
2023/05/22 03:15:01;;;;;;;14.60;6.70;;;;;;;12.79;91.34;94559.56;5073777;28;20163;-81
2023/05/22 03:17:26;;;;;;;11.27;6.57;;;;;;;12.92;91.33;94576.19;5073936;28;20154;-81
2023/05/22 03:19:53;;;;;;;13.17;7.00;;;;;;;12.80;91.18;94562.97;5065873;28;20273;-81
2023/05/22 03:22:18;;;;;;;15.67;7.07;;;;;;;12.65;91.42;94547.63;5065352;28;20170;-80
2023/05/22 03:24:43;;;;;;;10.40;6.73;;;;;;;12.74;91.66;94569.19;5064984;28;20228;-81
2023/05/22 03:27:10;;;;;;;12.07;6.80;;;;;;;12.60;91.91;94552.00;5071899;28;20665;-81
2023/05/22 03:29:35;;;;;;;13.03;6.77;;;;;;;12.53;92.34;94551.31;5073285;28;20575;-81
2023/05/22 03:32:02;;;;;;;9.33;5.97;;;;;;;12.76;92.56;94577.69;5073050;28;20159;-81
2023/05/22 03:34:28;;;;;;;16.07;7.50;;;;;;;12.48;92.68;94539.59;5072501;28;20171;-82
2023/05/22 03:36:56;;;;;;;13.73;7.60;;;;;;;12.62;93.60;94577.13;5072470;28;20154;-82
2023/05/22 03:39:22;;;;;;;12.77;7.00;;;;;;;12.68;93.52;94588.59;5072298;28;20170;-82
2023/05/22 03:41:50;;;;;;;24.03;7.40;;;;;;;12.79;93.47;94579.88;5072219;28;20212;-82
2023/05/22 03:44:15;;;;;;;18.03;7.20;;;;;;;12.92;93.33;94579.63;5072605;28;20155;-82
2023/05/22 03:46:40;;;;;;;11.37;7.20;;;;;;;12.89;92.76;94553.66;5072154;28;20241;-82
2023/05/22 03:49:06;;;;;;;14.93;7.77;;;;;;;13.02;92.48;94565.84;5072290;28;20170;-82
2023/05/22 03:51:31;;;;;;;15.73;7.67;;;;;;;12.97;92.05;94542.75;5072855;28;20162;-81
2023/05/22 03:53:56;;;;;;;13.53;7.67;;;;;;;13.37;91.12;94592.22;5072310;28;20253;-82
2023/05/22 03:56:22;;;;;;;11.07;7.67;;;;;;;13.46;91.04;94582.88;5071011;28;20245;-82
2023/05/22 03:58:48;;;;;;;12.87;7.50;;;;;;;13.46;90.55;94578.41;5071051;28;20167;-82
2023/05/22 04:01:15;;;;;;;14.97;8.10;;;;;;;13.66;90.35;94591.22;5070428;28;20535;-82
2023/05/22 04:03:41;;;;;;;10.33;7.53;;;;;;;13.46;90.04;94548.50;5065241;28;20556;-82
2023/05/22 04:06:06;;;;;;;20.57;8.10;;;;;;;13.64;89.71;94566.84;5051829;28;20234;-82
2023/05/22 04:08:32;;;;;;;15.10;7.43;;;;;;;13.73;89.63;94573.34;5052031;28;20264;-82
2023/05/22 04:10:57;;;;;;;12.13;8.23;;;;;;;13.81;89.48;94580.09;5051345;28;20167;-82
2023/05/22 04:13:23;;;;;;;14.17;8.50;;;;;;;13.86;89.09;94586.28;5051949;28;20159;-82
2023/05/22 04:15:49;;;;;;;12.97;7.90;;;;;;;13.66;89.53;94556.81;5050667;28;20255;-82
2023/05/22 04:18:14;;;;;;;20.33;9.93;;;;;;;13.90;89.81;94594.56;5051940;28;20178;-82
2023/05/22 04:20:41;;;;;;;21.07;11.57;;;;;;;13.78;90.08;94575.28;5052319;28;20570;-82
2023/05/22 04:23:07;;;;;;;21.90;10.37;;;;;;;13.90;90.11;94578.69;5052163;28;20166;-82
2023/05/22 04:25:33;;;;;;;14.83;8.90;;;;;;;13.97;90.08;94568.75;5052216;28;20167;-82
2023/05/22 04:28:02;;;;;;;17.37;9.83;;;;;;;14.04;89.85;94582.63;5052019;28;20266;-83
2023/05/22 04:30:28;;;;;;;22.40;9.70;;;;;;;13.90;89.85;94560.16;5050864;28;20185;-80
2023/05/22 04:32:55;;;;;;;17.57;9.53;;;;;;;14.16;89.70;94591.31;5050785;28;20205;-81
2023/05/22 04:35:21;;;;;;;15.73;9.10;;;;;;;14.24;89.42;94580.31;5052285;28;20158;-80
2023/05/22 04:37:46;;;;;;;21.55;8.80;;;;;;;14.35;88.56;94589.25;5052155;28;20163;-80
2023/05/22 04:40:13;;;;;;;15.80;8.63;;;;;;;14.42;88.62;94583.81;5052405;28;20186;-80
2023/05/22 04:42:39;;;;;;;22.00;9.07;;;;;;;14.67;88.11;94613.34;5050765;28;20175;-80
2023/05/22 04:45:05;;;;;;;21.73;8.73;;;;;;;14.59;87.72;94564.22;5052112;28;20175;-80
2023/05/22 04:47:31;;;;;;;24.02;8.57;;;;;;;15.12;86.99;94591.19;5052313;28;20233;-80
2023/05/22 04:49:57;;;;;;;14.20;8.20;;;;;;;15.75;85.95;94606.56;5052201;28;20163;-80
2023/05/22 04:52:23;;;;;;;16.38;8.55;;;;;;;16.46;82.95;94601.94;5051951;28;20221;-80
2023/05/22 04:54:50;;;;;;;18.33;11.75;;;;;;;17.10;79.52;94618.66;5055301;28;20669;-80
2023/05/22 04:57:16;;;;;;;17.23;11.38;;;;;;;17.64;76.89;94599.81;5056467;28;20216;-80
2023/05/22 04:59:41;;;;;;;13.15;8.93;;;;;;;18.23;72.78;94616.22;5056239;28;20246;-80
2023/05/22 05:02:07;;;;;;;16.40;7.95;;;;;;;18.70;70.80;94607.19;5058350;28;20175;-80
2023/05/22 05:04:32;;;;;;;13.95;6.65;;;;;;;19.50;69.61;94621.53;5057838;28;20155;-81
2023/05/22 05:06:58;;;;;;;14.35;7.28;;;;;;;20.22;67.32;94628.97;5057273;28;20230;-80
2023/05/22 05:09:24;;;;;;;14.65;6.45;;;;;;;20.77;63.63;94610.13;5058024;28;20191;-80
2023/05/22 05:11:51;;;;;;;11.27;6.63;;;;;;;21.08;60.92;94631.03;5057435;28;20159;-81
2023/05/22 05:14:16;;;;;;;19.45;9.35;;;;;;;20.83;62.13;94620.53;5057743;28;20171;-81
2023/05/22 05:16:42;;;;;;;19.35;9.63;;;;;;;21.31;60.89;94621.47;5057333;28;20159;-81
2023/05/22 05:19:08;;;;;;;11.93;6.97;;;;;;;21.92;59.74;94633.38;5057853;28;20162;-81
2023/05/22 05:21:33;;;;;;;11.23;6.18;;;;;;;22.65;59.59;94630.28;5055952;28;20171;-81
2023/05/22 05:23:59;;;;;;;9.85;6.15;;;;;;;23.23;56.17;94611.88;5055188;28;20650;-81
2023/05/22 05:26:25;;;;;;;14.13;7.20;;;;;;;23.82;54.13;94608.38;5055213;28;20191;-81
2023/05/22 05:28:51;;;;;;;6.65;5.47;;;;;;;24.65;52.76;94615.19;5055021;28;20664;-82
2023/05/22 05:31:20;;;;;;;12.98;6.63;;;;;;;25.06;51.78;94598.91;5053501;28;20159;-82
2023/05/22 05:33:45;;;;;;;10.73;5.78;;;;;;;25.40;50.64;94622.53;5054690;28;20217;-82
2023/05/22 05:36:11;;;;;;;9.05;5.40;;;;;;;25.88;48.73;94632.59;5054678;28;20183;-81
2023/05/22 05:38:36;;;;;;;10.40;5.65;;;;;;;26.08;47.92;94628.53;5055171;28;20163;-81
2023/05/22 05:41:01;;;;;;;15.02;5.57;;;;;;;26.25;46.14;94625.88;5054770;28;20727;-82
2023/05/22 05:43:27;;;;;;;7.55;5.40;;;;;;;26.56;47.11;94631.97;5054484;28;20300;-82
2023/05/22 05:45:52;;;;;;;12.43;6.13;;;;;;;26.76;45.70;94613.56;5054362;28;20163;-82
2023/05/22 05:48:18;;;;;;;9.82;5.22;;;;;;;26.90;45.30;94627.69;5054522;28;20242;-82
2023/05/22 05:50:43;;;;;;;14.38;4.45;;;;;;;27.10;45.30;94632.47;5054247;28;20177;-82
2023/05/22 05:53:09;;;;;;;7.05;5.07;;;;;;;27.17;43.96;94638.19;5054803;28;20195;-82
2023/05/22 05:55:34;;;;;;;12.88;5.40;;;;;;;27.25;46.25;94623.88;5054207;28;20167;-82
2023/05/22 05:58:00;;;;;;;10.05;5.28;;;;;;;27.58;44.79;94636.88;5054289;28;20170;-82
2023/05/22 06:00:26;;;;;;;11.30;5.72;;;;;;;27.42;45.40;94613.00;5054103;28;20171;-82
2023/05/22 06:02:51;;;;;;;8.40;4.53;;;;;;;27.20;44.89;94609.72;5054130;28;20177;-82
2023/05/22 06:05:18;;;;;;;8.50;5.32;;;;;;;26.84;44.77;94551.41;5054285;28;20159;-83
2023/05/22 06:07:44;;;;;;;8.75;5.63;;;;;;;27.17;44.68;94627.38;5053742;28;20609;-83
2023/05/22 06:10:10;;;;;;;15.18;5.57;;;;;;;27.07;45.10;94618.84;5054273;28;20155;-83
2023/05/22 06:12:36;;;;;;;10.68;4.93;;;;;;;27.00;46.13;94632.81;5054132;28;20646;-83
2023/05/22 06:15:04;;;;;;;21.70;4.78;;;;;;;26.79;43.62;94627.25;5053874;28;20175;-82
2023/05/22 06:17:30;;;;;;;9.55;4.85;;;;;;;26.48;43.44;94640.88;5052619;28;20168;-82
2023/05/22 06:19:55;;;;;;;7.95;4.35;;;;;;;25.90;43.74;94601.53;5054092;28;20217;-83
2023/05/22 06:22:24;;;;;;;15.32;5.03;;;;;;;25.57;44.25;94608.34;5054353;28;20250;-82
2023/05/22 06:24:50;;;;;;;6.28;4.55;;;;;;;25.15;45.83;94633.97;5054342;28;20152;-82
2023/05/22 06:27:15;;;;;;;11.38;5.03;;;;;;;25.10;45.78;94621.41;5053896;28;20265;-83
2023/05/22 06:29:40;;;;;;;8.07;4.82;;;;;;;25.07;46.65;94611.28;5052643;28;20186;-83
2023/05/22 06:32:06;;;;;;;11.90;5.13;;;;;;;25.19;48.09;94608.78;5053749;28;20182;-82
2023/05/22 06:34:32;;;;;;;7.22;4.00;;;;;;;25.35;48.59;94616.47;5052194;28;20618;-83
2023/05/22 06:36:57;;;;;;;10.68;4.40;;;;;;;25.14;44.68;94610.81;5053508;28;20163;-82
2023/05/22 06:39:22;;;;;;;11.38;5.47;;;;;;;24.92;45.22;94627.00;5053425;28;20167;-82
2023/05/22 06:41:48;;;;;;;9.25;4.18;;;;;;;24.71;47.91;94615.88;5053303;28;20694;-82
2023/05/22 06:44:13;;;;;;;13.68;4.50;;;;;;;24.74;48.78;94623.34;5053873;28;20166;-83
2023/05/22 06:46:38;;;;;;;11.45;5.20;;;;;;;24.45;47.80;94618.38;5038095;28;20214;-84
2023/05/22 06:49:05;;;;;;;9.65;4.50;;;;;;;24.28;45.81;94616.31;5051985;28;20614;-83
2023/05/22 06:51:30;;;;;;;8.98;3.80;;;;;;;23.94;46.73;94591.72;5053228;28;20179;-83
2023/05/22 06:53:56;;;;;;;7.82;3.92;;;;;;;23.96;47.11;94619.09;5053128;28;20252;-84
2023/05/22 06:56:21;;;;;;;5.35;3.83;;;;;;;23.46;46.20;94602.06;5053694;28;20345;-82
2023/05/22 06:58:47;;;;;;;7.60;4.43;;;;;;;23.12;48.26;94624.69;5053171;28;20166;-83
2023/05/22 07:01:12;;;;;;;14.05;5.22;;;;;;;22.77;49.42;94636.00;5052914;28;20179;-82
2023/05/22 07:03:37;;;;;;;7.88;4.05;;;;;;;22.44;49.59;94581.47;5052973;28;20164;-82
2023/05/22 07:06:03;;;;;;;7.95;4.30;;;;;;;22.62;50.82;94612.84;5052661;28;20232;-83
2023/05/22 07:08:28;;;;;;;8.18;4.55;;;;;;;22.99;51.18;94616.59;5051511;28;20182;-82
2023/05/22 07:10:55;;;;;;;8.75;4.40;;;;;;;23.25;50.00;94626.63;5052785;28;20171;-83
2023/05/22 07:13:21;;;;;;;7.90;4.15;;;;;;;22.98;48.49;94597.00;5052731;28;20187;-83
2023/05/22 07:15:46;;;;;;;10.27;4.28;;;;;;;23.28;53.10;94598.34;5052255;28;20250;-83
2023/05/22 07:18:11;;;;;;;9.05;4.43;;;;;;;23.57;50.61;94628.47;5051439;28;20174;-83
2023/05/22 07:20:37;;;;;;;16.77;4.00;;;;;;;23.30;50.07;94602.34;5053193;28;20187;-83
2023/05/22 07:23:02;;;;;;;5.43;3.80;;;;;;;23.21;49.67;94620.22;5052585;28;20228;-83
2023/05/22 07:25:28;;;;;;;8.35;3.67;;;;;;;22.97;48.24;94624.94;5051404;28;20190;-84
2023/05/22 07:27:54;;;;;;;13.15;4.22;;;;;;;22.45;49.35;94591.13;5052774;28;20197;-84
2023/05/22 07:30:20;;;;;;;9.00;3.80;;;;;;;22.62;50.49;94628.97;5052485;28;20168;-84
2023/05/22 07:32:47;;;;;;;7.43;3.95;;;;;;;22.35;49.90;94596.63;5052441;28;20224;-84
2023/05/22 07:35:12;;;;;;;5.40;3.30;;;;;;;22.47;49.69;94623.81;5052288;28;20190;-83
2023/05/22 07:37:38;;;;;;;9.25;4.25;;;;;;;22.57;51.67;94600.28;5049998;28;20705;-83
2023/05/22 07:40:08;;;;;;;8.20;3.60;;;;;;;23.10;53.71;94597.31;5051775;28;20174;-83
2023/05/22 07:42:34;;;;;;;9.73;3.40;;;;;;;23.40;46.41;94620.16;5051990;28;20177;-84
2023/05/22 07:45:00;;;;;;;8.10;3.33;;;;;;;23.53;47.06;94600.59;5050528;28;20646;-83
2023/05/22 07:47:26;;;;;;;7.72;3.38;;;;;;;24.17;48.59;94616.78;5050945;28;20209;-83
2023/05/22 07:49:51;;;;;;;7.82;3.72;;;;;;;24.33;46.52;94569.66;5052261;28;20597;-87
2023/05/22 07:52:16;;;;;;;6.63;3.63;;;;;;;24.51;45.56;94571.38;5050968;28;20178;-83
2023/05/22 07:54:42;;;;;;;8.00;3.72;;;;;;;25.03;44.97;94609.47;5052103;28;20178;-83
2023/05/22 07:57:07;;;;;;;9.40;3.92;;;;;;;25.25;44.55;94606.78;5052159;28;20175;-82
2023/05/22 07:59:34;;;;;;;6.88;4.10;;;;;;;25.02;43.50;94608.69;5052088;28;20257;-82
2023/05/22 08:02:00;;;;;;;7.10;4.10;;;;;;;24.92;44.03;94606.22;5052388;28;20216;-83
2023/05/22 08:04:25;;;;;;;8.30;3.65;;;;;;;25.10;45.79;94616.03;5051884;28;20641;-82
2023/05/22 08:06:50;;;;;;;6.95;3.38;;;;;;;25.51;45.73;94612.31;5051800;28;20227;-81
2023/05/22 08:09:19;;;;;;;7.97;3.67;;;;;;;25.60;44.38;94590.78;5050548;28;20629;-87
2023/05/22 08:11:45;;;;;;;8.30;3.20;;;;;;;25.66;40.83;94622.69;5049487;28;20183;-83
2023/05/22 08:14:10;;;;;;;7.45;3.03;;;;;;;25.19;42.15;94586.44;5032159;28;20179;-82
2023/05/22 08:16:36;;;;;;;6.72;3.17;;;;;;;25.29;45.10;94609.63;5052018;28;20613;-84
2023/05/22 08:19:01;;;;;;;9.30;3.35;;;;;;;25.38;45.06;94619.34;5051674;28;20175;-83
2023/05/22 08:21:27;;;;;;;9.57;3.67;;;;;;;25.24;43.20;94594.41;5051526;28;20630;-82
2023/05/22 08:23:52;;;;;;;7.85;3.03;;;;;;;25.34;43.62;94598.75;5051882;28;20216;-82
2023/05/22 08:26:17;;;;;;;6.90;3.20;;;;;;;24.85;44.05;94600.47;5051002;28;20205;-81
2023/05/22 08:28:43;;;;;;;7.93;2.50;;;;;;;24.87;44.17;94609.03;5053740;28;20246;-81
2023/05/22 08:31:10;;;;;;;5.40;3.03;;;;;;;24.61;42.34;94573.84;5055560;28;20175;-83
2023/05/22 08:33:35;;;;;;;11.68;3.20;;;;;;;23.93;42.84;94574.00;5055703;28;20171;-86
2023/05/22 08:36:01;;;;;;;7.68;2.58;;;;;;;24.02;43.44;94583.75;5054475;28;21117;-83
2023/05/22 08:38:26;;;;;;;8.10;2.97;;;;;;;24.04;43.55;94603.06;5055753;28;20167;-81
2023/05/22 08:40:53;;;;;;;8.75;3.05;;;;;;;24.33;44.13;94607.31;5065608;28;20765;-81
2023/05/22 08:43:19;;;;;;;12.88;2.97;;;;;;;24.54;44.74;94610.38;5068266;28;20182;-81
2023/05/22 08:45:51;;;;;;;4.72;2.60;;;;;;;24.23;41.90;94600.25;5066845;28;20166;-80
2023/05/22 08:48:19;;;;;;;8.48;2.40;;;;;;;23.59;43.38;94588.66;5058613;28;20167;-81
2023/05/22 08:50:46;;;;;;;3.20;2.10;;;;;;;23.70;42.00;94605.38;5064602;28;20162;-81
2023/05/22 08:53:14;;;;;;;6.75;2.33;;;;;;;23.51;41.88;94602.00;5067003;28;20250;-80
2023/05/22 08:55:40;;;;;;;4.53;2.28;;;;;;;23.31;41.24;94593.19;5075381;28;20249;-80
2023/05/22 08:58:06;;;;;;;4.32;2.40;;;;;;;23.90;44.63;94598.78;5065389;28;20229;-79
2023/05/22 09:00:32;;;;;;;4.40;2.38;;;;;;;23.91;40.68;94608.47;5064042;28;20174;-82
2023/05/22 09:02:58;;;;;;;4.70;2.38;;;;;;;23.55;41.08;94602.97;5062323;28;20190;-81
2023/05/22 09:05:26;;;;;;;3.45;2.63;;;;;;;23.63;41.75;94588.84;5070249;28;20171;-80
2023/05/22 09:07:53;;;;;;;5.00;2.15;;;;;;;23.35;42.96;94574.59;5056798;28;20360;-80
2023/05/22 09:10:19;;;;;;;4.93;2.35;;;;;;;22.86;42.66;94597.47;5057223;28;20179;-80
2023/05/22 09:13:04;;;;;;;4.82;2.38;;;;;;;22.85;44.76;94585.13;5049426;28;20197;-86
2023/05/22 09:15:33;;;;;;;6.82;2.40;;;;;;;22.74;42.17;94564.94;5062227;28;20535;-88
2023/05/22 09:17:59;;;;;;;9.48;2.83;;;;;;;22.53;42.68;94559.06;5062165;28;20171;-90
2023/05/22 09:20:25;;;;;;;5.63;2.30;;;;;;;22.62;41.29;94574.50;5065286;28;20193;-90
2023/05/22 09:22:50;;;;;;;8.65;2.10;;;;;;;22.28;43.08;94561.31;5074073;28;20170;-85
2023/05/22 09:25:20;;;;;;;12.80;2.97;;;;;;;22.02;42.64;94572.41;5059795;28;20539;-86
2023/05/22 09:27:47;;;;;;;2.80;2.17;;;;;;;21.98;43.28;94586.66;5062310;28;20209;-83
2023/05/22 09:30:17;;;;;;;5.13;2.47;;;;;;;21.96;42.26;94597.69;5059673;28;20186;-89
2023/05/22 09:32:45;;;;;;;4.90;2.92;;;;;;;21.61;44.20;94564.09;5047382;28;20183;-87
2023/05/22 09:35:11;;;;;;;3.78;2.50;;;;;;;22.02;46.07;94593.06;5052394;28;20254;-88
2023/05/22 09:37:37;;;;;;;6.75;4.07;;;;;;;22.28;46.84;94591.63;5062865;28;20685;-86
2023/05/22 09:40:05;;;;;;;9.63;2.88;;;;;;;22.38;46.40;94571.91;5061315;28;20731;-87
2023/05/22 09:42:34;;;;;;;4.85;2.65;;;;;;;22.46;45.88;94576.63;5063249;28;20175;-88
2023/05/22 09:45:05;;;;;;;6.95;2.55;;;;;;;22.68;46.44;94571.41;5066248;28;20185;-88
2023/05/22 09:47:31;;;;;;;5.30;2.95;;;;;;;22.61;46.14;94554.91;5057612;28;20206;-88
2023/05/22 09:49:57;;;;;;;6.93;2.40;;;;;;;22.50;46.51;94581.09;5065027;28;20182;-89
2023/05/22 09:52:23;;;;;;;3.33;2.67;;;;;;;22.31;45.99;94583.00;5065868;28;20166;-88
2023/05/22 09:54:54;;;;;;;8.90;2.70;;;;;;;22.07;47.43;94575.03;5057407;28;20175;-84
2023/05/22 09:57:22;;;;;;;9.20;2.70;;;;;;;21.80;48.59;94559.53;5068448;28;20198;-88
2023/05/22 09:59:53;;;;;;;6.30;2.88;;;;;;;21.59;49.64;94546.69;5062523;28;20170;-87
2023/05/22 10:02:21;;;;;;;4.85;2.85;;;;;;;21.40;50.29;94565.38;5062310;28;20603;-86
2023/05/22 10:04:48;;;;;;;3.92;2.90;;;;;;;21.33;50.62;94592.53;5062337;28;20163;-87
2023/05/22 10:07:15;;;;;;;7.95;3.15;;;;;;;21.28;51.45;94587.19;5061610;28;20254;-87
2023/05/22 10:09:42;;;;;;;7.13;2.75;;;;;;;20.92;50.87;94545.81;5061001;28;20171;-85
2023/05/22 10:12:09;;;;;;;11.82;2.78;;;;;;;20.66;51.54;94526.50;5054819;28;20258;-85
2023/05/22 10:14:35;;;;;;;4.70;2.90;;;;;;;20.69;52.13;94569.53;5053511;28;20171;-84
2023/05/22 10:17:03;;;;;;;7.82;3.17;;;;;;;20.81;53.42;94585.22;5055834;28;20160;-84
2023/05/22 10:19:31;;;;;;;6.95;3.15;;;;;;;20.76;53.54;94573.78;5052063;28;20171;-84
2023/05/22 10:21:59;;;;;;;6.35;2.83;;;;;;;20.68;52.73;94561.78;5051234;28;20183;-84
2023/05/22 10:24:24;;;;;;;7.28;3.08;;;;;;;20.84;52.29;94581.19;5059685;28;20236;-84
2023/05/22 10:26:52;;;;;;;5.35;2.78;;;;;;;20.75;53.03;94574.88;5059085;28;20202;-88
2023/05/22 10:29:30;;;;;;;6.85;3.35;;;;;;;20.77;53.31;94588.72;5054212;28;20250;-85
2023/05/22 10:32:12;;;;;;;5.53;2.78;;;;;;;20.48;52.23;94576.16;5053375;28;20159;-84
2023/05/22 10:34:58;;;;;;;5.47;3.15;;;;;;;20.51;53.03;94577.44;5051607;28;20225;-83
2023/05/22 10:37:48;;;;;;;5.75;3.05;;;;;;;20.60;53.74;94595.28;5053304;28;20645;-89
2023/05/22 10:40:34;;;;;;;6.15;2.75;;;;;;;20.43;54.03;94594.09;5053449;28;20190;-85
2023/05/22 10:43:01;;;;;;;5.40;2.97;;;;;;;20.06;55.05;94560.63;5053495;28;20183;-87
2023/05/22 10:45:27;;;;;;;4.20;2.97;;;;;;;19.93;55.66;94579.94;5053063;28;20171;-87
2023/05/22 10:48:05;;;;;;;9.00;3.45;;;;;;;20.13;57.46;94616.44;5053158;28;20685;-85
2023/05/22 10:50:31;;;;;;;8.00;3.10;;;;;;;19.97;58.48;94605.03;5051049;28;20167;-85
2023/05/22 10:53:21;;;;;;;3.40;2.88;;;;;;;19.81;63.69;94631.00;5051804;28;20278;-84
2023/05/22 10:55:57;;;;;;;4.65;2.97;;;;;;;19.47;66.08;94617.50;5053104;28;20163;-83
2023/05/22 10:58:31;;;;;;;4.45;3.22;;;;;;;19.56;66.94;94609.75;5051874;28;20634;-84
2023/05/22 11:01:17;;;;;;;7.75;3.28;;;;;;;19.65;69.11;94600.09;5053021;28;20238;-85
2023/05/22 11:03:49;;;;;;;8.60;3.13;;;;;;;19.59;67.43;94580.63;5052962;28;20232;-84
2023/05/22 11:06:33;;;;;;;6.13;3.50;;;;;;;19.66;67.64;94604.38;5044341;28;20223;-88
2023/05/22 11:09:15;;;;;;;4.10;3.53;;;;;;;19.26;69.25;94554.56;5050469;28;20215;-85
2023/05/22 11:11:40;;;;;;;3.22;2.72;;;;;;;19.56;68.69;94561.69;5052814;28;20163;-85
2023/05/22 11:14:05;;;;;;;6.40;3.55;;;;;;;19.96;69.04;94596.22;5053397;28;20174;-85
2023/05/22 11:16:32;;;;;;;6.15;3.15;;;;;;;20.03;70.15;94547.00;5052130;28;20545;-85
2023/05/22 11:19:08;;;;;;;6.22;3.50;;;;;;;20.66;70.88;94578.13;5052704;28;20167;-85
2023/05/22 11:21:40;;;;;;;4.60;3.25;;;;;;;20.80;65.00;94570.25;5051353;28;20179;-85
2023/05/22 11:24:07;;;;;;;4.85;3.10;;;;;;;20.95;64.70;94570.09;5052926;28;20245;-86
2023/05/22 11:26:32;;;;;;;6.53;3.78;;;;;;;20.08;69.68;94549.63;5051186;28;20199;-88
2023/05/22 11:28:58;;;;;;;7.13;3.63;;;;;;;20.01;69.02;94576.69;5051362;28;20288;-86
2023/05/22 11:31:25;;;;;;;7.45;3.85;;;;;;;19.66;66.56;94574.19;5051168;28;20164;-86
2023/05/22 11:33:51;;;;;;;6.32;3.20;;;;;;;;;;5051147;28;20175;-85